sensor_id;sensor_type;location;lat;lon;timestamp;P1;durP1;ratioP1;P2;durP2;ratioP2
809;SDS011;387;48.772;9.186;2024-01-30T00:01:11;14.47;;;7.70;;
809;SDS011;387;48.772;9.186;2024-01-30T00:03:36;15.30;;;7.90;;
809;SDS011;387;48.772;9.186;2024-01-30T00:06:03;12.23;;;7.83;;
809;SDS011;387;48.772;9.186;2024-01-30T00:08:30;13.37;;;7.37;;
809;SDS011;387;48.772;9.186;2024-01-30T00:10:55;12.70;;;7.17;;
809;SDS011;387;48.772;9.186;2024-01-30T00:13:21;10.90;;;6.83;;
809;SDS011;387;48.772;9.186;2024-01-30T00:15:47;16.30;;;8.00;;
809;SDS011;387;48.772;9.186;2024-01-30T00:18:13;11.67;;;7.20;;
809;SDS011;387;48.772;9.186;2024-01-30T00:20:39;10.60;;;7.03;;
809;SDS011;387;48.772;9.186;2024-01-30T00:23:04;11.27;;;7.33;;
809;SDS011;387;48.772;9.186;2024-01-30T00:25:30;14.73;;;7.90;;
809;SDS011;387;48.772;9.186;2024-01-30T00:27:56;12.83;;;7.73;;
809;SDS011;387;48.772;9.186;2024-01-30T00:30:21;11.83;;;7.10;;
809;SDS011;387;48.772;9.186;2024-01-30T00:32:47;12.70;;;7.10;;
809;SDS011;387;48.772;9.186;2024-01-30T00:35:12;12.23;;;7.50;;
809;SDS011;387;48.772;9.186;2024-01-30T00:37:38;12.00;;;6.67;;
809;SDS011;387;48.772;9.186;2024-01-30T00:40:04;10.00;;;7.10;;
809;SDS011;387;48.772;9.186;2024-01-30T00:42:31;13.57;;;7.30;;
809;SDS011;387;48.772;9.186;2024-01-30T00:44:56;14.23;;;7.07;;
809;SDS011;387;48.772;9.186;2024-01-30T00:47:22;9.10;;;6.30;;
809;SDS011;387;48.772;9.186;2024-01-30T00:49:48;15.33;;;7.07;;
809;SDS011;387;48.772;9.186;2024-01-30T00:52:14;9.43;;;6.80;;
809;SDS011;387;48.772;9.186;2024-01-30T00:54:40;9.73;;;5.93;;
809;SDS011;387;48.772;9.186;2024-01-30T00:57:06;12.57;;;7.33;;
809;SDS011;387;48.772;9.186;2024-01-30T00:59:32;10.23;;;6.13;;
809;SDS011;387;48.772;9.186;2024-01-30T01:01:57;10.83;;;6.33;;
809;SDS011;387;48.772;9.186;2024-01-30T01:04:23;13.90;;;8.43;;
809;SDS011;387;48.772;9.186;2024-01-30T01:06:49;11.57;;;7.50;;
809;SDS011;387;48.772;9.186;2024-01-30T01:09:14;16.20;;;7.47;;
809;SDS011;387;48.772;9.186;2024-01-30T01:11:40;15.83;;;8.60;;
809;SDS011;387;48.772;9.186;2024-01-30T01:14:06;14.87;;;7.50;;
809;SDS011;387;48.772;9.186;2024-01-30T01:16:31;10.13;;;7.10;;
809;SDS011;387;48.772;9.186;2024-01-30T01:18:58;17.30;;;8.17;;
809;SDS011;387;48.772;9.186;2024-01-30T01:21:25;12.97;;;7.77;;
809;SDS011;387;48.772;9.186;2024-01-30T01:23:51;14.13;;;7.20;;
809;SDS011;387;48.772;9.186;2024-01-30T01:26:16;11.80;;;7.07;;
809;SDS011;387;48.772;9.186;2024-01-30T01:28:42;12.53;;;7.70;;
809;SDS011;387;48.772;9.186;2024-01-30T01:31:07;13.30;;;6.87;;
809;SDS011;387;48.772;9.186;2024-01-30T01:33:33;14.33;;;7.93;;
809;SDS011;387;48.772;9.186;2024-01-30T01:36:00;12.80;;;7.27;;
809;SDS011;387;48.772;9.186;2024-01-30T01:38:27;14.83;;;7.53;;
809;SDS011;387;48.772;9.186;2024-01-30T01:40:53;11.50;;;7.30;;
809;SDS011;387;48.772;9.186;2024-01-30T01:43:19;11.67;;;7.00;;
809;SDS011;387;48.772;9.186;2024-01-30T01:45:44;12.67;;;7.23;;
809;SDS011;387;48.772;9.186;2024-01-30T01:48:10;16.13;;;8.20;;
809;SDS011;387;48.772;9.186;2024-01-30T01:50:37;14.70;;;7.43;;
809;SDS011;387;48.772;9.186;2024-01-30T01:53:05;11.63;;;7.07;;
809;SDS011;387;48.772;9.186;2024-01-30T01:55:33;11.73;;;7.17;;
809;SDS011;387;48.772;9.186;2024-01-30T01:57:59;13.23;;;7.40;;
809;SDS011;387;48.772;9.186;2024-01-30T02:00:25;10.97;;;6.90;;
809;SDS011;387;48.772;9.186;2024-01-30T02:02:51;11.20;;;7.03;;
809;SDS011;387;48.772;9.186;2024-01-30T02:05:19;10.77;;;6.60;;
809;SDS011;387;48.772;9.186;2024-01-30T02:07:45;10.90;;;6.43;;
809;SDS011;387;48.772;9.186;2024-01-30T02:10:11;12.23;;;7.30;;
809;SDS011;387;48.772;9.186;2024-01-30T02:12:37;11.70;;;6.93;;
809;SDS011;387;48.772;9.186;2024-01-30T02:15:03;12.47;;;7.13;;
809;SDS011;387;48.772;9.186;2024-01-30T02:17:30;13.03;;;7.53;;
809;SDS011;387;48.772;9.186;2024-01-30T02:19:57;13.47;;;7.37;;
809;SDS011;387;48.772;9.186;2024-01-30T02:22:23;10.53;;;6.17;;
809;SDS011;387;48.772;9.186;2024-01-30T02:24:49;14.03;;;7.30;;
809;SDS011;387;48.772;9.186;2024-01-30T02:27:14;11.03;;;6.83;;
809;SDS011;387;48.772;9.186;2024-01-30T02:29:40;13.10;;;7.40;;
809;SDS011;387;48.772;9.186;2024-01-30T02:32:06;10.67;;;6.90;;
809;SDS011;387;48.772;9.186;2024-01-30T02:34:32;13.13;;;7.00;;
809;SDS011;387;48.772;9.186;2024-01-30T02:36:58;13.70;;;6.60;;
809;SDS011;387;48.772;9.186;2024-01-30T02:39:24;12.00;;;7.50;;
809;SDS011;387;48.772;9.186;2024-01-30T02:41:49;11.80;;;7.00;;
809;SDS011;387;48.772;9.186;2024-01-30T02:44:15;14.63;;;7.77;;
809;SDS011;387;48.772;9.186;2024-01-30T02:46:41;9.43;;;6.80;;
809;SDS011;387;48.772;9.186;2024-01-30T02:49:06;12.40;;;6.90;;
809;SDS011;387;48.772;9.186;2024-01-30T02:51:33;11.63;;;7.30;;
809;SDS011;387;48.772;9.186;2024-01-30T02:53:59;14.43;;;8.40;;
809;SDS011;387;48.772;9.186;2024-01-30T02:56:25;14.00;;;8.23;;
809;SDS011;387;48.772;9.186;2024-01-30T02:58:50;13.70;;;7.30;;
809;SDS011;387;48.772;9.186;2024-01-30T03:01:16;19.20;;;7.60;;
809;SDS011;387;48.772;9.186;2024-01-30T03:03:41;13.90;;;7.70;;
809;SDS011;387;48.772;9.186;2024-01-30T03:06:08;12.63;;;7.73;;
809;SDS011;387;48.772;9.186;2024-01-30T03:08:34;12.30;;;6.77;;
809;SDS011;387;48.772;9.186;2024-01-30T03:11:00;13.20;;;7.70;;
809;SDS011;387;48.772;9.186;2024-01-30T03:13:26;13.40;;;7.50;;
809;SDS011;387;48.772;9.186;2024-01-30T03:15:52;12.67;;;7.00;;
809;SDS011;387;48.772;9.186;2024-01-30T03:18:17;11.33;;;6.90;;
809;SDS011;387;48.772;9.186;2024-01-30T03:20:43;12.57;;;7.93;;
809;SDS011;387;48.772;9.186;2024-01-30T03:23:08;11.33;;;6.73;;
809;SDS011;387;48.772;9.186;2024-01-30T03:25:34;13.33;;;7.73;;
809;SDS011;387;48.772;9.186;2024-01-30T03:28:00;9.97;;;6.63;;
809;SDS011;387;48.772;9.186;2024-01-30T03:30:25;12.20;;;6.73;;
809;SDS011;387;48.772;9.186;2024-01-30T03:32:51;14.70;;;7.60;;
809;SDS011;387;48.772;9.186;2024-01-30T03:35:16;12.23;;;7.67;;
809;SDS011;387;48.772;9.186;2024-01-30T03:37:43;14.20;;;7.50;;
809;SDS011;387;48.772;9.186;2024-01-30T03:40:09;11.30;;;7.00;;
809;SDS011;387;48.772;9.186;2024-01-30T03:42:35;13.03;;;7.20;;
809;SDS011;387;48.772;9.186;2024-01-30T03:45:01;9.20;;;6.47;;
809;SDS011;387;48.772;9.186;2024-01-30T03:47:27;13.07;;;7.50;;
809;SDS011;387;48.772;9.186;2024-01-30T03:49:53;12.50;;;7.40;;
809;SDS011;387;48.772;9.186;2024-01-30T03:52:18;16.40;;;7.90;;
809;SDS011;387;48.772;9.186;2024-01-30T03:54:44;10.83;;;6.23;;
809;SDS011;387;48.772;9.186;2024-01-30T03:57:09;14.23;;;7.07;;
809;SDS011;387;48.772;9.186;2024-01-30T03:59:35;10.80;;;6.83;;
809;SDS011;387;48.772;9.186;2024-01-30T04:02:00;12.30;;;7.50;;
809;SDS011;387;48.772;9.186;2024-01-30T04:04:26;14.80;;;8.17;;
809;SDS011;387;48.772;9.186;2024-01-30T04:06:51;12.27;;;7.40;;
809;SDS011;387;48.772;9.186;2024-01-30T04:09:17;14.33;;;7.43;;
809;SDS011;387;48.772;9.186;2024-01-30T04:11:43;10.70;;;6.10;;
809;SDS011;387;48.772;9.186;2024-01-30T04:14:10;15.13;;;7.10;;
809;SDS011;387;48.772;9.186;2024-01-30T04:16:36;13.10;;;7.63;;
809;SDS011;387;48.772;9.186;2024-01-30T04:19:01;10.43;;;6.80;;
809;SDS011;387;48.772;9.186;2024-01-30T04:21:27;10.13;;;7.00;;
809;SDS011;387;48.772;9.186;2024-01-30T04:23:52;9.70;;;6.37;;
809;SDS011;387;48.772;9.186;2024-01-30T04:26:18;12.40;;;6.87;;
809;SDS011;387;48.772;9.186;2024-01-30T04:28:44;13.07;;;8.03;;
809;SDS011;387;48.772;9.186;2024-01-30T04:31:10;11.57;;;7.53;;
809;SDS011;387;48.772;9.186;2024-01-30T04:33:36;11.27;;;6.70;;
809;SDS011;387;48.772;9.186;2024-01-30T04:36:02;11.97;;;7.13;;
809;SDS011;387;48.772;9.186;2024-01-30T04:38:33;12.60;;;7.50;;
809;SDS011;387;48.772;9.186;2024-01-30T04:40:59;14.07;;;7.90;;
809;SDS011;387;48.772;9.186;2024-01-30T04:43:25;13.10;;;7.87;;
809;SDS011;387;48.772;9.186;2024-01-30T04:45:51;14.70;;;8.40;;
809;SDS011;387;48.772;9.186;2024-01-30T04:48:17;16.10;;;8.20;;
809;SDS011;387;48.772;9.186;2024-01-30T04:50:42;13.10;;;7.80;;
809;SDS011;387;48.772;9.186;2024-01-30T04:53:09;12.30;;;7.63;;
809;SDS011;387;48.772;9.186;2024-01-30T04:55:35;15.97;;;7.73;;
809;SDS011;387;48.772;9.186;2024-01-30T04:58:01;12.53;;;8.07;;
809;SDS011;387;48.772;9.186;2024-01-30T05:00:27;13.77;;;7.53;;
809;SDS011;387;48.772;9.186;2024-01-30T05:02:52;13.87;;;8.53;;
809;SDS011;387;48.772;9.186;2024-01-30T05:05:19;13.57;;;8.17;;
809;SDS011;387;48.772;9.186;2024-01-30T05:07:46;16.17;;;8.97;;
809;SDS011;387;48.772;9.186;2024-01-30T05:10:12;15.03;;;8.47;;
809;SDS011;387;48.772;9.186;2024-01-30T05:12:38;13.20;;;8.03;;
809;SDS011;387;48.772;9.186;2024-01-30T05:15:04;15.30;;;8.73;;
809;SDS011;387;48.772;9.186;2024-01-30T05:17:30;12.67;;;7.10;;
809;SDS011;387;48.772;9.186;2024-01-30T05:19:56;14.20;;;8.00;;
809;SDS011;387;48.772;9.186;2024-01-30T05:22:21;13.47;;;8.27;;
809;SDS011;387;48.772;9.186;2024-01-30T05:24:47;13.57;;;8.63;;
809;SDS011;387;48.772;9.186;2024-01-30T05:27:12;13.03;;;8.20;;
809;SDS011;387;48.772;9.186;2024-01-30T05:29:41;14.53;;;8.47;;
809;SDS011;387;48.772;9.186;2024-01-30T05:32:06;14.60;;;8.00;;
809;SDS011;387;48.772;9.186;2024-01-30T05:34:32;15.63;;;8.40;;
809;SDS011;387;48.772;9.186;2024-01-30T05:36:58;14.33;;;8.13;;
809;SDS011;387;48.772;9.186;2024-01-30T05:39:24;14.53;;;8.83;;
809;SDS011;387;48.772;9.186;2024-01-30T05:41:49;12.50;;;7.90;;
809;SDS011;387;48.772;9.186;2024-01-30T05:44:15;17.93;;;10.57;;
809;SDS011;387;48.772;9.186;2024-01-30T05:46:40;16.43;;;8.50;;
809;SDS011;387;48.772;9.186;2024-01-30T05:49:06;13.27;;;7.83;;
809;SDS011;387;48.772;9.186;2024-01-30T05:51:32;16.13;;;8.47;;
809;SDS011;387;48.772;9.186;2024-01-30T05:53:58;13.03;;;9.10;;
809;SDS011;387;48.772;9.186;2024-01-30T05:56:23;11.20;;;7.90;;
809;SDS011;387;48.772;9.186;2024-01-30T05:58:49;14.63;;;8.13;;
809;SDS011;387;48.772;9.186;2024-01-30T06:01:17;14.10;;;8.70;;
809;SDS011;387;48.772;9.186;2024-01-30T06:03:43;9.50;;;7.20;;
809;SDS011;387;48.772;9.186;2024-01-30T06:06:09;15.30;;;9.03;;
809;SDS011;387;48.772;9.186;2024-01-30T06:08:35;13.57;;;8.10;;
809;SDS011;387;48.772;9.186;2024-01-30T06:11:01;17.23;;;8.87;;
809;SDS011;387;48.772;9.186;2024-01-30T06:13:26;14.50;;;8.23;;
809;SDS011;387;48.772;9.186;2024-01-30T06:15:52;15.23;;;8.80;;
809;SDS011;387;48.772;9.186;2024-01-30T06:18:18;14.43;;;8.97;;
809;SDS011;387;48.772;9.186;2024-01-30T06:20:45;15.43;;;9.00;;
809;SDS011;387;48.772;9.186;2024-01-30T06:23:11;17.80;;;8.90;;
809;SDS011;387;48.772;9.186;2024-01-30T06:25:39;14.03;;;8.70;;
809;SDS011;387;48.772;9.186;2024-01-30T06:28:05;16.47;;;9.67;;
809;SDS011;387;48.772;9.186;2024-01-30T06:30:34;18.90;;;8.83;;
809;SDS011;387;48.772;9.186;2024-01-30T06:32:59;14.20;;;8.87;;
809;SDS011;387;48.772;9.186;2024-01-30T06:35:25;16.27;;;9.10;;
809;SDS011;387;48.772;9.186;2024-01-30T06:37:51;15.70;;;8.80;;
809;SDS011;387;48.772;9.186;2024-01-30T06:40:16;16.50;;;8.57;;
809;SDS011;387;48.772;9.186;2024-01-30T06:42:42;15.13;;;8.40;;
809;SDS011;387;48.772;9.186;2024-01-30T06:45:07;13.50;;;8.23;;
809;SDS011;387;48.772;9.186;2024-01-30T06:47:33;14.40;;;8.17;;
809;SDS011;387;48.772;9.186;2024-01-30T06:49:59;15.63;;;8.53;;
809;SDS011;387;48.772;9.186;2024-01-30T06:52:24;15.13;;;8.83;;
809;SDS011;387;48.772;9.186;2024-01-30T06:54:50;24.20;;;10.03;;
809;SDS011;387;48.772;9.186;2024-01-30T06:57:15;15.23;;;8.27;;
809;SDS011;387;48.772;9.186;2024-01-30T06:59:41;18.17;;;9.03;;
809;SDS011;387;48.772;9.186;2024-01-30T07:02:09;18.23;;;8.80;;
809;SDS011;387;48.772;9.186;2024-01-30T07:04:35;14.60;;;8.60;;
809;SDS011;387;48.772;9.186;2024-01-30T07:07:02;15.00;;;8.57;;
809;SDS011;387;48.772;9.186;2024-01-30T07:09:29;14.53;;;8.10;;
809;SDS011;387;48.772;9.186;2024-01-30T07:11:55;13.03;;;8.30;;
809;SDS011;387;48.772;9.186;2024-01-30T07:14:23;14.77;;;8.50;;
809;SDS011;387;48.772;9.186;2024-01-30T07:16:49;12.97;;;8.00;;
809;SDS011;387;48.772;9.186;2024-01-30T07:19:15;16.70;;;9.60;;
809;SDS011;387;48.772;9.186;2024-01-30T07:21:40;13.70;;;8.20;;
809;SDS011;387;48.772;9.186;2024-01-30T07:24:06;15.30;;;9.03;;
809;SDS011;387;48.772;9.186;2024-01-30T07:26:32;16.47;;;9.20;;
809;SDS011;387;48.772;9.186;2024-01-30T07:28:57;14.77;;;8.90;;
809;SDS011;387;48.772;9.186;2024-01-30T07:31:23;18.43;;;8.40;;
809;SDS011;387;48.772;9.186;2024-01-30T07:33:48;13.20;;;8.93;;
809;SDS011;387;48.772;9.186;2024-01-30T07:36:14;14.17;;;8.23;;
809;SDS011;387;48.772;9.186;2024-01-30T07:38:40;15.67;;;9.57;;
809;SDS011;387;48.772;9.186;2024-01-30T07:41:06;15.67;;;9.23;;
809;SDS011;387;48.772;9.186;2024-01-30T07:43:31;16.80;;;9.17;;
809;SDS011;387;48.772;9.186;2024-01-30T07:45:58;14.07;;;8.80;;
809;SDS011;387;48.772;9.186;2024-01-30T07:48:25;13.80;;;8.23;;
809;SDS011;387;48.772;9.186;2024-01-30T07:50:52;15.57;;;9.10;;
809;SDS011;387;48.772;9.186;2024-01-30T07:53:18;21.27;;;7.90;;
809;SDS011;387;48.772;9.186;2024-01-30T07:55:43;17.33;;;9.03;;
809;SDS011;387;48.772;9.186;2024-01-30T07:58:12;16.93;;;8.93;;
809;SDS011;387;48.772;9.186;2024-01-30T08:00:37;18.73;;;8.57;;
809;SDS011;387;48.772;9.186;2024-01-30T08:03:04;13.67;;;8.40;;
809;SDS011;387;48.772;9.186;2024-01-30T08:05:29;16.03;;;8.97;;
809;SDS011;387;48.772;9.186;2024-01-30T08:07:55;16.70;;;8.60;;
809;SDS011;387;48.772;9.186;2024-01-30T08:10:21;16.13;;;8.40;;
809;SDS011;387;48.772;9.186;2024-01-30T08:12:46;18.83;;;9.70;;
809;SDS011;387;48.772;9.186;2024-01-30T08:15:12;14.00;;;7.70;;
809;SDS011;387;48.772;9.186;2024-01-30T08:17:38;17.90;;;8.17;;
809;SDS011;387;48.772;9.186;2024-01-30T08:20:04;14.60;;;8.50;;
809;SDS011;387;48.772;9.186;2024-01-30T08:22:30;13.73;;;8.00;;
809;SDS011;387;48.772;9.186;2024-01-30T08:24:58;17.10;;;8.00;;
809;SDS011;387;48.772;9.186;2024-01-30T08:27:24;13.50;;;9.17;;
809;SDS011;387;48.772;9.186;2024-01-30T08:29:50;14.57;;;7.73;;
809;SDS011;387;48.772;9.186;2024-01-30T08:32:16;14.57;;;8.63;;
809;SDS011;387;48.772;9.186;2024-01-30T08:34:42;17.50;;;9.77;;
809;SDS011;387;48.772;9.186;2024-01-30T08:37:07;16.13;;;9.77;;
809;SDS011;387;48.772;9.186;2024-01-30T08:39:33;16.40;;;8.90;;
809;SDS011;387;48.772;9.186;2024-01-30T08:41:59;59.63;;;14.10;;
809;SDS011;387;48.772;9.186;2024-01-30T08:44:25;26.03;;;9.93;;
809;SDS011;387;48.772;9.186;2024-01-30T08:46:50;38.00;;;11.63;;
809;SDS011;387;48.772;9.186;2024-01-30T08:49:16;31.00;;;11.87;;
809;SDS011;387;48.772;9.186;2024-01-30T08:51:43;30.73;;;13.80;;
809;SDS011;387;48.772;9.186;2024-01-30T08:54:09;26.50;;;11.70;;
809;SDS011;387;48.772;9.186;2024-01-30T08:56:35;20.47;;;10.47;;
809;SDS011;387;48.772;9.186;2024-01-30T08:59:01;25.10;;;12.77;;
809;SDS011;387;48.772;9.186;2024-01-30T09:01:26;23.87;;;14.13;;
809;SDS011;387;48.772;9.186;2024-01-30T09:03:52;28.17;;;13.50;;
809;SDS011;387;48.772;9.186;2024-01-30T09:06:18;25.40;;;13.10;;
809;SDS011;387;48.772;9.186;2024-01-30T09:08:44;22.87;;;13.40;;
809;SDS011;387;48.772;9.186;2024-01-30T09:11:09;21.53;;;12.73;;
809;SDS011;387;48.772;9.186;2024-01-30T09:13:55;19.90;;;12.53;;
809;SDS011;387;48.772;9.186;2024-01-30T09:16:21;22.30;;;12.60;;
809;SDS011;387;48.772;9.186;2024-01-30T09:18:46;24.97;;;13.10;;
809;SDS011;387;48.772;9.186;2024-01-30T09:21:12;20.50;;;12.47;;
809;SDS011;387;48.772;9.186;2024-01-30T09:23:37;25.93;;;12.20;;
809;SDS011;387;48.772;9.186;2024-01-30T09:26:03;19.30;;;12.57;;
809;SDS011;387;48.772;9.186;2024-01-30T09:28:29;28.83;;;12.73;;
809;SDS011;387;48.772;9.186;2024-01-30T09:30:54;16.80;;;10.60;;
809;SDS011;387;48.772;9.186;2024-01-30T09:33:20;22.37;;;12.93;;
809;SDS011;387;48.772;9.186;2024-01-30T09:35:46;25.40;;;12.87;;
809;SDS011;387;48.772;9.186;2024-01-30T09:38:11;20.87;;;12.43;;
809;SDS011;387;48.772;9.186;2024-01-30T09:40:39;28.30;;;12.67;;
809;SDS011;387;48.772;9.186;2024-01-30T09:43:06;24.03;;;13.40;;
809;SDS011;387;48.772;9.186;2024-01-30T09:45:32;22.00;;;12.67;;
809;SDS011;387;48.772;9.186;2024-01-30T09:48:00;19.80;;;11.30;;
809;SDS011;387;48.772;9.186;2024-01-30T09:50:25;21.63;;;12.20;;
809;SDS011;387;48.772;9.186;2024-01-30T09:52:53;19.63;;;12.13;;
809;SDS011;387;48.772;9.186;2024-01-30T09:55:21;21.13;;;12.50;;
809;SDS011;387;48.772;9.186;2024-01-30T09:57:47;25.70;;;13.63;;
809;SDS011;387;48.772;9.186;2024-01-30T10:00:13;25.40;;;12.90;;
809;SDS011;387;48.772;9.186;2024-01-30T10:02:38;20.23;;;13.30;;
809;SDS011;387;48.772;9.186;2024-01-30T10:05:05;29.70;;;13.70;;
809;SDS011;387;48.772;9.186;2024-01-30T10:07:32;27.43;;;15.10;;
809;SDS011;387;48.772;9.186;2024-01-30T10:09:59;25.70;;;13.60;;
809;SDS011;387;48.772;9.186;2024-01-30T10:12:27;27.17;;;14.07;;
809;SDS011;387;48.772;9.186;2024-01-30T10:14:55;21.47;;;13.90;;
809;SDS011;387;48.772;9.186;2024-01-30T10:17:21;25.17;;;13.90;;
809;SDS011;387;48.772;9.186;2024-01-30T10:19:50;22.23;;;13.83;;
809;SDS011;387;48.772;9.186;2024-01-30T10:22:16;22.07;;;14.63;;
809;SDS011;387;48.772;9.186;2024-01-30T10:24:42;19.97;;;12.47;;
809;SDS011;387;48.772;9.186;2024-01-30T10:27:10;18.57;;;12.83;;
809;SDS011;387;48.772;9.186;2024-01-30T10:29:36;23.10;;;12.70;;
809;SDS011;387;48.772;9.186;2024-01-30T10:32:02;25.80;;;14.00;;
809;SDS011;387;48.772;9.186;2024-01-30T10:34:29;22.50;;;14.57;;
809;SDS011;387;48.772;9.186;2024-01-30T10:37:06;23.47;;;13.47;;
809;SDS011;387;48.772;9.186;2024-01-30T10:39:43;23.10;;;12.90;;
809;SDS011;387;48.772;9.186;2024-01-30T10:42:14;25.70;;;14.53;;
809;SDS011;387;48.772;9.186;2024-01-30T10:47:31;26.07;;;15.10;;
809;SDS011;387;48.772;9.186;2024-01-30T10:50:00;27.07;;;13.70;;
809;SDS011;387;48.772;9.186;2024-01-30T10:52:26;24.70;;;15.70;;
809;SDS011;387;48.772;9.186;2024-01-30T10:54:55;28.87;;;14.30;;
809;SDS011;387;48.772;9.186;2024-01-30T10:57:25;24.63;;;14.50;;
809;SDS011;387;48.772;9.186;2024-01-30T10:59:58;26.67;;;13.60;;
809;SDS011;387;48.772;9.186;2024-01-30T11:02:25;26.20;;;14.67;;
809;SDS011;387;48.772;9.186;2024-01-30T11:04:55;27.53;;;16.03;;
809;SDS011;387;48.772;9.186;2024-01-30T11:07:26;29.30;;;15.50;;
809;SDS011;387;48.772;9.186;2024-01-30T11:10:00;26.40;;;15.30;;
809;SDS011;387;48.772;9.186;2024-01-30T11:12:31;29.60;;;15.30;;
809;SDS011;387;48.772;9.186;2024-01-30T11:15:18;24.67;;;14.17;;
809;SDS011;387;48.772;9.186;2024-01-30T11:20:22;23.83;;;13.37;;
809;SDS011;387;48.772;9.186;2024-01-30T11:22:48;28.00;;;14.70;;
809;SDS011;387;48.772;9.186;2024-01-30T11:25:16;26.93;;;14.13;;
809;SDS011;387;48.772;9.186;2024-01-30T11:27:43;25.87;;;15.10;;
809;SDS011;387;48.772;9.186;2024-01-30T11:30:10;24.20;;;16.00;;
809;SDS011;387;48.772;9.186;2024-01-30T11:32:36;30.33;;;15.50;;
809;SDS011;387;48.772;9.186;2024-01-30T11:35:05;21.90;;;14.50;;
809;SDS011;387;48.772;9.186;2024-01-30T11:37:36;23.90;;;14.60;;
809;SDS011;387;48.772;9.186;2024-01-30T11:40:04;24.37;;;14.60;;
809;SDS011;387;48.772;9.186;2024-01-30T11:42:30;27.63;;;14.80;;
809;SDS011;387;48.772;9.186;2024-01-30T11:44:59;29.90;;;16.17;;
809;SDS011;387;48.772;9.186;2024-01-30T11:47:26;30.30;;;16.70;;
809;SDS011;387;48.772;9.186;2024-01-30T11:49:52;24.13;;;15.20;;
809;SDS011;387;48.772;9.186;2024-01-30T11:52:17;28.70;;;15.40;;
809;SDS011;387;48.772;9.186;2024-01-30T11:54:43;22.97;;;14.20;;
809;SDS011;387;48.772;9.186;2024-01-30T11:57:08;20.83;;;14.17;;
809;SDS011;387;48.772;9.186;2024-01-30T11:59:34;25.73;;;13.90;;
809;SDS011;387;48.772;9.186;2024-01-30T12:01:59;25.23;;;14.37;;
809;SDS011;387;48.772;9.186;2024-01-30T12:04:28;28.17;;;14.07;;
809;SDS011;387;48.772;9.186;2024-01-30T12:06:54;23.60;;;15.00;;
809;SDS011;387;48.772;9.186;2024-01-30T12:09:20;25.30;;;14.70;;
809;SDS011;387;48.772;9.186;2024-01-30T12:11:47;28.40;;;14.27;;
809;SDS011;387;48.772;9.186;2024-01-30T12:14:13;25.30;;;14.60;;
809;SDS011;387;48.772;9.186;2024-01-30T12:16:40;26.63;;;15.00;;
809;SDS011;387;48.772;9.186;2024-01-30T12:19:06;25.83;;;14.10;;
809;SDS011;387;48.772;9.186;2024-01-30T12:21:33;19.97;;;13.50;;
809;SDS011;387;48.772;9.186;2024-01-30T12:23:59;26.33;;;14.10;;
809;SDS011;387;48.772;9.186;2024-01-30T12:26:25;26.40;;;14.27;;
809;SDS011;387;48.772;9.186;2024-01-30T12:28:53;21.23;;;12.40;;
809;SDS011;387;48.772;9.186;2024-01-30T12:31:27;22.87;;;13.83;;
809;SDS011;387;48.772;9.186;2024-01-30T12:33:53;21.10;;;13.10;;
809;SDS011;387;48.772;9.186;2024-01-30T12:36:19;24.13;;;13.97;;
809;SDS011;387;48.772;9.186;2024-01-30T12:38:46;24.53;;;14.13;;
809;SDS011;387;48.772;9.186;2024-01-30T12:41:11;26.23;;;14.07;;
809;SDS011;387;48.772;9.186;2024-01-30T12:43:37;26.50;;;14.43;;
809;SDS011;387;48.772;9.186;2024-01-30T12:46:03;21.53;;;13.93;;
809;SDS011;387;48.772;9.186;2024-01-30T12:48:28;24.93;;;13.47;;
809;SDS011;387;48.772;9.186;2024-01-30T12:50:55;23.53;;;13.80;;
809;SDS011;387;48.772;9.186;2024-01-30T12:53:21;22.53;;;13.10;;
809;SDS011;387;48.772;9.186;2024-01-30T12:55:47;21.60;;;12.23;;
809;SDS011;387;48.772;9.186;2024-01-30T12:58:14;24.77;;;13.67;;
809;SDS011;387;48.772;9.186;2024-01-30T13:00:41;22.30;;;13.10;;
809;SDS011;387;48.772;9.186;2024-01-30T13:03:08;22.57;;;13.00;;
809;SDS011;387;48.772;9.186;2024-01-30T13:05:34;25.10;;;12.77;;
809;SDS011;387;48.772;9.186;2024-01-30T13:08:00;20.83;;;12.10;;
809;SDS011;387;48.772;9.186;2024-01-30T13:10:26;21.13;;;12.70;;
809;SDS011;387;48.772;9.186;2024-01-30T13:12:52;24.53;;;13.13;;
809;SDS011;387;48.772;9.186;2024-01-30T13:15:18;21.47;;;11.97;;
809;SDS011;387;48.772;9.186;2024-01-30T13:17:43;23.27;;;12.77;;
809;SDS011;387;48.772;9.186;2024-01-30T13:20:11;21.60;;;12.83;;
809;SDS011;387;48.772;9.186;2024-01-30T13:22:39;22.73;;;11.90;;
809;SDS011;387;48.772;9.186;2024-01-30T13:25:05;37.80;;;13.10;;
809;SDS011;387;48.772;9.186;2024-01-30T13:27:30;22.70;;;12.10;;
809;SDS011;387;48.772;9.186;2024-01-30T13:29:56;16.67;;;11.10;;
809;SDS011;387;48.772;9.186;2024-01-30T13:32:22;16.90;;;10.53;;
809;SDS011;387;48.772;9.186;2024-01-30T13:34:47;22.67;;;12.27;;
809;SDS011;387;48.772;9.186;2024-01-30T13:37:13;16.67;;;10.73;;
809;SDS011;387;48.772;9.186;2024-01-30T13:39:38;21.57;;;11.00;;
809;SDS011;387;48.772;9.186;2024-01-30T13:42:04;24.83;;;12.20;;
809;SDS011;387;48.772;9.186;2024-01-30T13:44:29;19.00;;;10.63;;
809;SDS011;387;48.772;9.186;2024-01-30T13:46:55;29.53;;;11.50;;
809;SDS011;387;48.772;9.186;2024-01-30T13:49:21;24.30;;;10.93;;
809;SDS011;387;48.772;9.186;2024-01-30T13:51:47;21.70;;;11.70;;
809;SDS011;387;48.772;9.186;2024-01-30T13:54:12;24.53;;;11.57;;
809;SDS011;387;48.772;9.186;2024-01-30T13:56:38;18.80;;;11.97;;
809;SDS011;387;48.772;9.186;2024-01-30T13:59:03;25.27;;;11.87;;
809;SDS011;387;48.772;9.186;2024-01-30T14:01:30;24.50;;;12.53;;
809;SDS011;387;48.772;9.186;2024-01-30T14:03:56;21.43;;;12.10;;
809;SDS011;387;48.772;9.186;2024-01-30T14:06:22;26.87;;;13.20;;
809;SDS011;387;48.772;9.186;2024-01-30T14:08:48;29.40;;;13.53;;
809;SDS011;387;48.772;9.186;2024-01-30T14:11:13;23.97;;;12.33;;
809;SDS011;387;48.772;9.186;2024-01-30T14:13:39;21.20;;;12.07;;
809;SDS011;387;48.772;9.186;2024-01-30T14:16:05;20.70;;;11.67;;
809;SDS011;387;48.772;9.186;2024-01-30T14:18:30;28.40;;;12.60;;
809;SDS011;387;48.772;9.186;2024-01-30T14:20:56;25.00;;;14.13;;
809;SDS011;387;48.772;9.186;2024-01-30T14:23:22;19.43;;;12.87;;
809;SDS011;387;48.772;9.186;2024-01-30T14:25:47;26.70;;;12.33;;
809;SDS011;387;48.772;9.186;2024-01-30T14:28:14;27.37;;;13.77;;
809;SDS011;387;48.772;9.186;2024-01-30T14:30:39;27.20;;;13.20;;
809;SDS011;387;48.772;9.186;2024-01-30T14:33:05;24.60;;;13.83;;
809;SDS011;387;48.772;9.186;2024-01-30T14:35:32;30.90;;;14.00;;
809;SDS011;387;48.772;9.186;2024-01-30T14:37:58;21.50;;;12.27;;
809;SDS011;387;48.772;9.186;2024-01-30T14:40:24;23.80;;;11.80;;
809;SDS011;387;48.772;9.186;2024-01-30T14:42:50;20.20;;;12.50;;
809;SDS011;387;48.772;9.186;2024-01-30T14:45:15;25.77;;;14.00;;
809;SDS011;387;48.772;9.186;2024-01-30T14:47:41;29.10;;;13.43;;
809;SDS011;387;48.772;9.186;2024-01-30T14:50:07;25.00;;;14.10;;
809;SDS011;387;48.772;9.186;2024-01-30T14:52:33;26.53;;;12.60;;
809;SDS011;387;48.772;9.186;2024-01-30T14:55:00;17.20;;;12.37;;
809;SDS011;387;48.772;9.186;2024-01-30T14:57:25;23.43;;;12.50;;
809;SDS011;387;48.772;9.186;2024-01-30T14:59:51;25.03;;;12.30;;
809;SDS011;387;48.772;9.186;2024-01-30T15:02:17;22.60;;;13.00;;
809;SDS011;387;48.772;9.186;2024-01-30T15:04:42;27.87;;;13.70;;
809;SDS011;387;48.772;9.186;2024-01-30T15:07:08;30.50;;;15.70;;
809;SDS011;387;48.772;9.186;2024-01-30T15:09:34;26.87;;;13.37;;
809;SDS011;387;48.772;9.186;2024-01-30T15:11:59;26.23;;;13.70;;
809;SDS011;387;48.772;9.186;2024-01-30T15:14:25;20.67;;;12.20;;
809;SDS011;387;48.772;9.186;2024-01-30T15:16:50;23.57;;;13.33;;
809;SDS011;387;48.772;9.186;2024-01-30T15:19:18;27.77;;;14.07;;
809;SDS011;387;48.772;9.186;2024-01-30T15:21:43;21.50;;;13.37;;
809;SDS011;387;48.772;9.186;2024-01-30T15:24:09;20.20;;;13.33;;